Time;durP1;ratioP1;P1;durP2;ratioP2;P2;SDS_P1;SDS_P2;PMS_P1;PMS_P2;Temp;Humidity;BMP_temperature;BMP_pressure;BME280_temperature;BME280_humidity;BME280_pressure;Samples;Min_cycle;Max_cycle;Signal;HPM_P1;HPM_P2
2022/08/14 00:00:30;;;;;;;3.90;2.90;;;;;;;24.89;50.39;101482.81;5983732;29;20574;-72
2022/08/14 00:03:51;;;;;;;3.00;2.70;;;;;;;25.08;50.15;101475.53;5986927;29;20239;-73
2022/08/14 00:07:12;;;;;;;4.07;2.30;;;;;;;24.96;49.81;101469.84;5981995;29;20243;-73
2022/08/14 00:10:34;;;;;;;3.65;3.35;;;;;;;24.89;50.17;101465.38;5982083;29;20239;-73
2022/08/14 00:13:56;;;;;;;2.90;2.67;;;;;;;24.79;50.27;101459.47;5983279;29;20376;-74
2022/08/14 00:17:17;;;;;;;3.13;2.80;;;;;;;24.75;50.63;101459.06;5985169;29;20243;-73
2022/08/14 00:20:40;;;;;;;3.40;2.67;;;;;;;24.74;50.24;101465.63;5989063;29;20227;-73
2022/08/14 00:24:03;;;;;;;2.55;2.40;;;;;;;24.71;50.61;101452.25;5984159;29;20255;-73
2022/08/14 00:27:25;;;;;;;3.72;3.35;;;;;;;24.72;51.25;101444.81;5989436;29;20760;-74
2022/08/14 00:30:46;;;;;;;3.10;2.85;;;;;;;24.71;50.97;101448.63;5977276;29;20247;-73
2022/08/14 00:34:07;;;;;;;8.75;3.05;;;;;;;24.63;51.10;101435.94;5984909;29;20239;-73
2022/08/14 00:37:28;;;;;;;4.63;2.60;;;;;;;24.66;50.87;101441.00;5982916;29;20261;-73
2022/08/14 00:40:50;;;;;;;3.65;2.75;;;;;;;24.86;50.61;101433.59;5987026;29;20239;-73
2022/08/14 00:44:13;;;;;;;3.97;2.97;;;;;;;24.81;50.21;101432.50;5986268;29;20226;-73
2022/08/14 00:47:34;;;;;;;3.33;3.03;;;;;;;24.96;50.59;101425.69;5987572;29;20239;-74
2022/08/14 00:50:56;;;;;;;5.70;3.92;;;;;;;24.84;50.54;101421.91;5991371;29;20246;-72
2022/08/14 00:54:17;;;;;;;2.42;2.22;;;;;;;24.64;51.42;101423.00;5988673;29;20235;-72
2022/08/14 00:57:39;;;;;;;2.60;2.15;;;;;;;24.68;51.02;101422.31;5986716;29;20231;-73
2022/08/14 01:01:06;;;;;;;3.65;2.40;;;;;;;24.66;52.06;101429.97;5987781;29;20227;-72
2022/08/14 01:04:30;;;;;;;4.13;2.90;;;;;;;24.63;52.09;101427.66;5987079;29;20239;-72
2022/08/14 01:07:53;;;;;;;2.67;2.47;;;;;;;24.79;50.92;101420.84;5989972;29;20243;-72
2022/08/14 01:11:14;;;;;;;3.33;2.95;;;;;;;24.52;52.14;101428.28;5983967;29;20235;-71
2022/08/14 01:14:35;;;;;;;3.38;2.55;;;;;;;24.39;52.99;101425.53;5981540;29;20238;-71
2022/08/14 01:21:49;;;;;;;4.18;2.70;;;;;;;24.56;51.86;101421.28;5966353;29;20235;-71
2022/08/14 01:25:11;;;;;;;3.53;2.83;;;;;;;24.56;52.09;101419.38;5986463;29;20231;-73
2022/08/14 01:28:36;;;;;;;2.72;2.53;;;;;;;24.54;52.26;101416.00;5984587;29;20307;-73
2022/08/14 01:32:02;;;;;;;2.90;2.50;;;;;;;24.56;52.25;101413.00;5979995;29;20235;-73
2022/08/14 01:35:27;;;;;;;3.03;2.75;;;;;;;24.41;52.69;101412.38;5984393;29;20247;-73
2022/08/14 01:38:55;;;;;;;2.35;2.25;;;;;;;24.32;52.89;101421.97;5985132;29;20227;-73
2022/08/14 01:42:16;;;;;;;2.78;2.58;;;;;;;24.20;53.49;101421.72;5983906;29;20570;-73
2022/08/14 01:45:37;;;;;;;3.97;2.42;;;;;;;24.26;52.79;101412.59;5983714;29;20238;-73
2022/08/14 01:48:58;;;;;;;3.83;2.50;;;;;;;24.23;53.11;101412.19;5985006;29;20239;-72
2022/08/14 01:52:21;;;;;;;6.43;2.47;;;;;;;24.01;53.95;101402.41;5986752;29;20235;-73
2022/08/14 01:55:43;;;;;;;3.40;2.60;;;;;;;24.12;53.44;101399.03;5984711;29;20282;-72
2022/08/14 01:59:06;;;;;;;2.28;2.10;;;;;;;24.17;53.21;101394.59;5977319;29;20507;-72
2022/08/14 02:02:28;;;;;;;3.15;2.60;;;;;;;24.11;54.20;101387.19;5983140;29;20330;-73
2022/08/14 02:05:49;;;;;;;2.65;2.33;;;;;;;24.24;53.75;101391.84;5980262;29;20267;-72
2022/08/14 02:09:10;;;;;;;3.33;2.38;;;;;;;24.27;53.58;101389.50;5984974;29;20235;-72
2022/08/14 02:12:32;;;;;;;2.95;2.72;;;;;;;24.13;53.70;101384.22;5981910;29;20235;-72
2022/08/14 02:15:54;;;;;;;4.13;2.50;;;;;;;24.24;53.80;101381.66;5983421;29;20235;-72
2022/08/14 02:19:18;;;;;;;2.58;2.33;;;;;;;24.14;53.27;101375.72;5986293;29;20238;-72
2022/08/14 02:22:39;;;;;;;4.18;2.28;;;;;;;24.06;53.75;101378.69;5984770;29;20231;-73
2022/08/14 02:26:03;;;;;;;2.88;2.35;;;;;;;24.03;54.44;101381.84;5982419;29;20239;-73
2022/08/14 02:29:30;;;;;;;5.13;2.67;;;;;;;23.99;54.68;101383.31;5985737;29;20700;-73
2022/08/14 02:32:51;;;;;;;3.75;2.78;;;;;;;23.89;54.09;101385.66;5977662;29;20259;-73
2022/08/14 02:36:13;;;;;;;3.75;2.55;;;;;;;23.78;55.12;101378.84;5980771;29;20283;-73
2022/08/14 02:39:37;;;;;;;5.00;3.85;;;;;;;23.91;54.85;101379.94;5983239;29;20559;-71
2022/08/14 02:42:59;;;;;;;3.72;2.83;;;;;;;23.94;54.09;101366.59;5993144;29;20242;-71
2022/08/14 02:46:21;;;;;;;3.97;3.67;;;;;;;23.84;55.18;101361.47;5988490;29;20243;-71
2022/08/14 02:49:44;;;;;;;3.10;2.90;;;;;;;23.80;56.57;101362.97;5991769;29;20231;-72
2022/08/14 02:53:05;;;;;;;3.47;3.20;;;;;;;23.95;55.27;101348.16;5989383;29;20239;-72
2022/08/14 02:56:26;;;;;;;4.03;3.72;;;;;;;23.94;55.40;101346.47;5987595;29;20620;-73
2022/08/14 02:59:49;;;;;;;5.97;4.78;;;;;;;23.89;55.44;101340.72;5982909;29;20259;-72
2022/08/14 03:03:11;;;;;;;5.07;4.00;;;;;;;23.71;55.75;101349.63;5977115;29;20711;-71
2022/08/14 03:06:33;;;;;;;3.45;3.25;;;;;;;23.67;55.46;101348.34;5987554;29;20356;-72
2022/08/14 03:09:54;;;;;;;5.20;4.80;;;;;;;23.64;56.12;101360.63;5985902;29;20239;-73
2022/08/14 03:13:15;;;;;;;3.30;2.92;;;;;;;23.53;56.12;101354.91;5987019;29;20234;-73
2022/08/14 03:16:37;;;;;;;3.97;3.53;;;;;;;23.51;56.45;101346.00;5983801;29;20255;-72
2022/08/14 03:19:59;;;;;;;3.63;3.30;;;;;;;23.57;56.14;101348.75;5985643;29;20235;-71
2022/08/14 03:23:20;;;;;;;5.38;3.58;;;;;;;23.52;56.74;101362.31;5982974;29;20235;-72
2022/08/14 03:26:43;;;;;;;5.93;3.72;;;;;;;23.46;56.90;101356.78;5983544;29;20255;-72
2022/08/14 03:30:05;;;;;;;4.22;3.08;;;;;;;23.52;56.68;101347.69;5986393;29;20239;-72
2022/08/14 03:33:27;;;;;;;4.32;3.17;;;;;;;23.56;57.05;101346.22;5984808;29;20251;-72
2022/08/14 03:36:53;;;;;;;4.47;4.18;;;;;;;23.48;56.15;101352.78;6009252;29;20231;-72
2022/08/14 03:40:15;;;;;;;3.38;3.17;;;;;;;23.38;56.84;101352.31;5983371;29;20235;-71
2022/08/14 03:43:36;;;;;;;3.33;3.13;;;;;;;23.36;57.44;101348.94;5985601;29;20238;-71
2022/08/14 03:46:57;;;;;;;4.60;3.17;;;;;;;23.34;56.74;101350.19;5985304;29;20326;-71
2022/08/14 03:50:18;;;;;;;3.95;3.65;;;;;;;23.27;57.64;101336.38;5986006;29;20326;-72
2022/08/14 03:53:44;;;;;;;3.13;2.90;;;;;;;23.28;57.91;101335.31;5984297;29;20270;-71
2022/08/14 03:57:05;;;;;;;3.55;3.25;;;;;;;23.28;57.88;101334.47;5981989;29;20661;-71
2022/08/14 04:00:27;;;;;;;3.53;2.97;;;;;;;23.23;58.00;101326.84;5986948;29;20231;-73
2022/08/14 04:03:50;;;;;;;4.25;3.85;;;;;;;23.07;58.02;101331.88;5986403;29;20322;-72
2022/08/14 04:07:11;;;;;;;4.65;3.08;;;;;;;22.95;58.75;101329.72;5983941;29;20520;-72
2022/08/14 04:10:34;;;;;;;4.03;3.28;;;;;;;23.00;58.87;101329.94;5983042;29;21079;-72
2022/08/14 04:13:55;;;;;;;3.28;2.92;;;;;;;23.12;58.20;101324.69;5981343;29;20804;-72
2022/08/14 04:17:16;;;;;;;4.57;3.40;;;;;;;23.18;58.55;101325.75;5979633;29;20222;-72
2022/08/14 04:20:39;;;;;;;3.40;2.83;;;;;;;23.17;57.86;101315.81;5988901;29;20318;-72
2022/08/14 04:24:01;;;;;;;5.47;2.97;;;;;;;23.10;58.23;101312.19;5990492;29;20242;-72
2022/08/14 04:27:23;;;;;;;3.40;2.65;;;;;;;23.18;57.52;101310.09;5988646;29;20239;-72
2022/08/14 04:30:44;;;;;;;4.10;3.50;;;;;;;23.10;58.54;101306.69;6003965;29;20793;-71
2022/08/14 04:34:05;;;;;;;3.15;2.85;;;;;;;23.16;58.63;101308.59;5982910;29;20612;-72
2022/08/14 04:44:44;;;;;;;3.05;2.55;;;;;;;23.22;58.39;101302.31;5967074;29;20231;-72
2022/08/14 04:48:13;;;;;;;3.15;2.78;;;;;;;23.44;57.80;101306.59;5982432;29;20227;-72
2022/08/14 04:51:34;;;;;;;4.32;2.33;;;;;;;23.44;57.59;101295.59;5989867;29;20225;-72
2022/08/14 04:54:54;;;;;;;2.25;2.05;;;;;;;23.38;58.50;101299.19;5987698;29;20318;-72
2022/08/14 04:58:16;;;;;;;5.28;2.65;;;;;;;23.41;58.17;101290.50;5984580;29;20255;-72
2022/08/14 05:01:42;;;;;;;6.28;2.78;;;;;;;23.54;58.25;101283.09;5983495;29;20560;-72
2022/08/14 05:05:03;;;;;;;5.97;2.80;;;;;;;23.63;57.28;101284.59;5991149;29;20239;-72
2022/08/14 05:08:24;;;;;;;3.55;3.25;;;;;;;23.68;57.65;101287.56;5992261;29;20322;-72
2022/08/14 05:11:46;;;;;;;3.47;2.40;;;;;;;23.77;57.33;101285.44;5989190;29;20313;-72
2022/08/14 05:15:09;;;;;;;2.55;2.35;;;;;;;23.66;57.34;101284.16;5988688;29;20290;-73
2022/08/14 05:18:34;;;;;;;4.15;3.85;;;;;;;23.89;57.05;101286.47;5989625;29;20227;-73
2022/08/14 05:21:58;;;;;;;5.07;2.85;;;;;;;23.65;58.13;101276.13;5991205;29;20243;-72
2022/08/14 05:25:19;;;;;;;2.45;2.25;;;;;;;24.07;56.40;101275.72;5990439;29;20266;-72
2022/08/14 05:28:43;;;;;;;4.50;3.03;;;;;;;24.18;56.18;101277.78;5987020;29;20243;-72
2022/08/14 05:32:06;;;;;;;3.67;2.85;;;;;;;24.18;56.96;101276.94;5988767;29;20239;-73
2022/08/14 05:35:28;;;;;;;3.53;2.30;;;;;;;23.90;57.44;101281.84;5991919;29;20243;-73
2022/08/14 05:38:49;;;;;;;3.83;2.65;;;;;;;23.91;58.04;101281.63;5997103;29;20239;-72
2022/08/14 05:42:10;;;;;;;2.95;2.72;;;;;;;23.98;57.99;101276.97;5997566;29;20231;-73
2022/08/14 05:45:33;;;;;;;5.90;3.10;;;;;;;23.96;57.83;101280.97;5995955;29;22006;-73
2022/08/14 05:48:56;;;;;;;4.50;2.67;;;;;;;24.03;58.17;101274.38;5994898;29;20235;-73
2022/08/14 05:52:19;;;;;;;2.97;2.58;;;;;;;24.20;57.77;101266.56;5993690;29;20243;-72
2022/08/14 05:55:40;;;;;;;3.72;2.25;;;;;;;24.44;57.06;101268.63;5994122;29;20516;-72
2022/08/14 05:59:01;;;;;;;6.68;2.58;;;;;;;24.12;57.75;101267.63;5994704;29;20235;-72
2022/08/14 06:02:22;;;;;;;4.10;3.22;;;;;;;24.40;56.70;101268.22;5994477;29;20247;-73
2022/08/14 06:05:44;;;;;;;3.08;2.72;;;;;;;24.49;56.59;101266.06;5994969;29;20231;-73
2022/08/14 06:09:07;;;;;;;3.95;3.28;;;;;;;24.72;56.28;101260.84;5997374;29;20251;-72
2022/08/14 06:12:28;;;;;;;3.17;2.92;;;;;;;24.85;55.96;101263.59;5992534;29;20239;-72
2022/08/14 06:15:50;;;;;;;2.80;2.60;;;;;;;24.79;56.49;101256.19;5990579;29;20227;-72
2022/08/14 06:19:11;;;;;;;3.50;2.55;;;;;;;24.76;56.70;101245.63;5995632;29;20235;-73
2022/08/14 06:22:32;;;;;;;2.28;2.08;;;;;;;24.56;57.02;101242.06;5999992;29;21001;-71
2022/08/14 06:25:54;;;;;;;2.78;2.40;;;;;;;24.65;56.84;101237.13;5994768;29;20238;-72
2022/08/14 06:29:16;;;;;;;3.88;3.58;;;;;;;24.73;56.62;101234.13;5996717;29;20246;-71
2022/08/14 06:32:36;;;;;;;2.90;2.70;;;;;;;25.10;55.92;101239.69;5994612;29;20251;-72
2022/08/14 06:35:57;;;;;;;2.78;2.58;;;;;;;24.79;55.81;101234.13;5990198;29;20317;-72
2022/08/14 06:39:18;;;;;;;2.83;2.42;;;;;;;24.51;56.93;101223.41;5990338;29;20243;-71
2022/08/14 06:42:41;;;;;;;5.20;2.72;;;;;;;24.85;56.28;101227.72;5990432;29;20258;-71
2022/08/14 06:46:02;;;;;;;2.95;2.67;;;;;;;25.13;55.76;101241.16;5993441;29;20250;-72
2022/08/14 06:49:25;;;;;;;4.03;2.75;;;;;;;24.98;56.19;101235.09;5990343;29;20327;-74
2022/08/14 06:52:47;;;;;;;3.03;2.40;;;;;;;24.83;56.37;101232.63;5983027;29;20243;-72
2022/08/14 06:56:09;;;;;;;2.78;2.55;;;;;;;24.51;57.03;101237.19;5982131;29;20511;-76
2022/08/14 06:59:31;;;;;;;6.25;3.58;;;;;;;24.84;56.63;101227.97;5999453;29;20269;-76
2022/08/14 07:06:31;;;;;;;3.00;2.78;;;;;;;25.56;55.06;101216.41;5990113;29;20334;-76
2022/08/14 07:09:52;;;;;;;4.10;3.15;;;;;;;25.53;55.28;101226.03;5987744;29;20242;-67
2022/08/14 07:13:14;;;;;;;18.85;4.32;;;;;;;25.82;54.59;101221.72;5991646;29;20243;-69
2022/08/14 07:16:36;;;;;;;3.25;2.65;;;;;;;25.59;55.21;101222.34;5991105;29;20239;-73
2022/08/14 07:19:57;;;;;;;8.27;3.83;;;;;;;25.76;54.70;101217.94;5988513;29;20232;-68
2022/08/14 07:23:18;;;;;;;3.80;3.35;;;;;;;25.79;54.69;101219.41;5981412;29;20239;-69
2022/08/14 07:26:40;;;;;;;4.47;3.42;;;;;;;25.84;54.77;101211.28;5985164;29;20250;-69
2022/08/14 07:30:03;;;;;;;3.97;2.97;;;;;;;25.78;55.21;101215.81;5981282;29;20247;-68
2022/08/14 07:33:27;;;;;;;3.90;3.25;;;;;;;25.56;55.34;101208.97;5988787;29;20243;-70
2022/08/14 07:36:48;;;;;;;3.65;2.72;;;;;;;25.75;54.93;101210.72;5987709;29;20251;-69
2022/08/14 07:40:11;;;;;;;5.35;3.00;;;;;;;25.95;54.42;101210.53;5987065;29;20242;-69
2022/08/14 07:43:32;;;;;;;3.42;2.95;;;;;;;26.03;54.57;101208.28;5993258;29;20235;-70
2022/08/14 07:46:53;;;;;;;4.20;3.50;;;;;;;26.22;54.11;101219.41;5988680;29;20308;-70
2022/08/14 07:50:16;;;;;;;6.60;2.63;;;;;;;26.04;54.28;101212.75;5980522;29;20818;-68
2022/08/14 07:53:39;;;;;;;5.30;2.95;;;;;;;26.33;54.08;101213.09;5979017;29;20247;-69
2022/08/14 07:57:00;;;;;;;3.70;2.65;;;;;;;26.27;53.46;101219.53;5984029;29;20246;-67
2022/08/14 08:00:23;;;;;;;6.25;2.88;;;;;;;26.40;52.80;101216.63;5991768;29;20241;-69
2022/08/14 08:03:46;;;;;;;5.10;2.35;;;;;;;26.45;53.30;101220.38;5986604;29;20235;-69
2022/08/14 08:07:09;;;;;;;5.93;2.65;;;;;;;26.62;53.23;101212.28;5982577;29;20620;-67
2022/08/14 08:10:31;;;;;;;3.83;3.17;;;;;;;27.11;51.66;101209.28;5975103;29;20239;-70
2022/08/14 08:13:58;;;;;;;4.75;2.60;;;;;;;27.14;51.39;101208.81;5977686;29;20239;-69
2022/08/14 08:17:19;;;;;;;3.35;3.15;;;;;;;27.55;51.12;101211.59;5976981;29;20242;-69
2022/08/14 08:20:43;;;;;;;3.42;3.13;;;;;;;27.66;50.76;101210.75;5980615;29;20238;-69
2022/08/14 08:24:06;;;;;;;3.72;3.33;;;;;;;27.94;50.29;101210.03;5968018;29;20243;-70
2022/08/14 08:27:27;;;;;;;4.07;3.08;;;;;;;28.22;49.77;101214.88;5966898;29;20239;-68
2022/08/14 08:30:50;;;;;;;3.63;3.33;;;;;;;28.10;49.62;101206.53;5968187;29;20239;-71
2022/08/14 08:34:11;;;;;;;3.47;3.17;;;;;;;27.65;49.86;101197.13;5983689;29;20239;-68
2022/08/14 08:37:35;;;;;;;4.90;2.80;;;;;;;27.69;49.95;101192.78;5991973;29;21273;-69
2022/08/14 08:40:59;;;;;;;6.43;3.28;;;;;;;27.52;50.07;101202.91;5990384;29;20239;-70
2022/08/14 08:44:29;;;;;;;4.95;3.78;;;;;;;27.75;49.92;101193.75;5991190;29;20580;-69
2022/08/14 08:47:51;;;;;;;3.75;3.28;;;;;;;28.21;48.88;101196.53;5984996;29;20254;-69
2022/08/14 08:51:22;;;;;;;5.25;3.35;;;;;;;28.47;48.65;101190.44;5981538;29;20293;-69
2022/08/14 08:54:53;;;;;;;5.68;3.42;;;;;;;28.53;48.49;101183.06;5992213;29;20314;-70
2022/08/14 08:58:17;;;;;;;4.40;3.10;;;;;;;28.08;48.90;101183.75;5983563;29;20235;-70
2022/08/14 09:01:38;;;;;;;7.68;2.90;;;;;;;28.36;48.94;101182.97;5987435;29;20235;-70
2022/08/14 09:05:03;;;;;;;5.68;3.35;;;;;;;28.85;47.79;101175.97;5988094;29;20511;-69
2022/08/14 09:08:25;;;;;;;4.82;3.45;;;;;;;28.96;47.56;101178.66;6016592;29;22183;-69
2022/08/14 09:11:47;;;;;;;4.53;3.33;;;;;;;28.16;49.01;101179.78;5987525;29;20239;-70
2022/08/14 09:15:11;;;;;;;7.28;4.25;;;;;;;28.70;47.90;101172.88;5992775;29;20233;-70
2022/08/14 09:18:32;;;;;;;5.80;3.78;;;;;;;28.86;47.74;101170.16;5985853;29;20247;-70
2022/08/14 09:21:53;;;;;;;6.25;4.30;;;;;;;29.07;47.22;101165.81;5999249;29;22816;-70
2022/08/14 09:25:15;;;;;;;4.07;3.55;;;;;;;29.79;45.56;101178.75;5966421;29;20240;-71
2022/08/14 09:28:36;;;;;;;5.20;4.70;;;;;;;30.02;44.96;101172.13;5968008;29;20245;-71
2022/08/14 09:32:02;;;;;;;3.92;3.55;;;;;;;29.60;45.14;101166.19;5966958;29;20243;-68
2022/08/14 09:35:35;;;;;;;7.78;4.30;;;;;;;29.27;46.08;101154.25;5974494;29;20322;-70
2022/08/14 09:39:06;;;;;;;5.55;4.18;;;;;;;29.74;45.31;101158.38;5962353;29;20231;-70
2022/08/14 09:42:36;;;;;;;65.80;61.30;;;;;;;30.28;47.04;101153.84;5963622;29;20830;-71
2022/08/14 09:45:58;;;;;;;137.05;126.22;;;;;;;30.56;45.69;101156.44;5960393;29;21028;-72
2022/08/14 09:49:30;;;;;;;293.73;274.75;;;;;;;31.21;45.93;101145.97;5976761;29;20235;-72
2022/08/14 09:52:55;;;;;;;635.33;577.72;;;;;;;31.58;43.08;101140.47;5974030;29;20281;-68
2022/08/14 09:56:17;;;;;;;181.40;170.63;;;;;;;31.54;42.34;101145.72;5972847;29;20247;-67
2022/08/14 09:59:44;;;;;;;31.35;28.92;;;;;;;31.21;41.65;101131.22;5982820;29;20243;-71
2022/08/14 10:03:05;;;;;;;6.47;5.88;;;;;;;31.31;41.81;101129.34;5976697;29;20313;-70
2022/08/14 10:06:29;;;;;;;6.88;6.30;;;;;;;31.62;41.13;101116.50;5979733;29;20239;-71
2022/08/14 10:09:50;;;;;;;5.53;4.38;;;;;;;31.60;41.70;101120.69;5982173;29;20624;-71
2022/08/14 10:13:22;;;;;;;4.85;4.28;;;;;;;31.84;41.44;101105.19;5979890;29;20720;-71
2022/08/14 10:16:44;;;;;;;7.22;4.90;;;;;;;31.76;41.99;101105.72;5977887;29;21608;-71
2022/08/14 10:20:07;;;;;;;7.28;4.25;;;;;;;31.65;41.03;101096.44;5985740;29;20511;-72
2022/08/14 10:23:42;;;;;;;6.65;4.60;;;;;;;31.88;41.05;101097.97;5989129;29;20235;-72
2022/08/14 10:27:03;;;;;;;4.65;4.15;;;;;;;31.66;41.49;101080.56;5986881;29;20591;-72
2022/08/14 10:30:33;;;;;;;6.80;4.53;;;;;;;31.31;42.11;101087.53;5987984;29;20246;-71
2022/08/14 10:34:00;;;;;;;5.95;4.88;;;;;;;31.34;41.89;101086.16;5994085;29;20234;-71
2022/08/14 10:37:21;;;;;;;5.38;4.88;;;;;;;31.43;42.73;101088.22;5991805;29;20232;-71
2022/08/14 10:40:43;;;;;;;5.07;4.75;;;;;;;31.26;42.42;101093.09;5996125;29;20227;-71
2022/08/14 10:44:10;;;;;;;6.93;6.30;;;;;;;30.96;42.57;101083.66;5995241;29;20318;-72
2022/08/14 10:47:35;;;;;;;5.32;4.70;;;;;;;30.85;42.98;101079.06;5998236;29;20235;-70
2022/08/14 10:50:58;;;;;;;6.32;5.63;;;;;;;30.60;43.85;101086.03;5991383;29;20239;-72
2022/08/14 10:54:30;;;;;;;6.43;5.82;;;;;;;30.69;43.58;101076.13;5990522;29;20296;-71
2022/08/14 10:57:54;;;;;;;8.20;5.53;;;;;;;30.76;44.30;101084.25;5988181;29;20235;-69
2022/08/14 11:01:15;;;;;;;6.38;4.15;;;;;;;31.00;43.84;101077.25;5982970;29;20235;-73
2022/08/14 11:04:35;;;;;;;5.00;4.60;;;;;;;31.00;43.62;101068.91;5988814;29;20227;-70
2022/08/14 11:07:59;;;;;;;5.13;4.72;;;;;;;31.04;44.05;101066.44;5986644;29;20239;-72
2022/08/14 11:11:21;;;;;;;4.72;4.43;;;;;;;30.98;43.96;101073.91;5991761;29;20243;-73
2022/08/14 11:14:50;;;;;;;4.97;4.50;;;;;;;31.00;43.03;101070.88;5990911;29;20255;-72
2022/08/14 11:18:12;;;;;;;5.90;5.50;;;;;;;31.21;42.75;101069.94;5992138;29;20682;-74
2022/08/14 11:21:34;;;;;;;6.88;4.70;;;;;;;30.57;44.10;101072.66;5991420;29;20532;-73
2022/08/14 11:24:57;;;;;;;5.00;4.57;;;;;;;30.57;44.09;101069.03;5990362;29;20580;-72
2022/08/14 11:28:24;;;;;;;6.32;4.85;;;;;;;30.65;44.35;101066.63;5990594;29;20322;-73
2022/08/14 11:31:47;;;;;;;5.80;4.35;;;;;;;30.79;44.09;101059.50;5993936;29;20237;-72
2022/08/14 11:35:15;;;;;;;9.82;8.45;;;;;;;30.82;43.93;101060.91;5998604;29;20303;-72
2022/08/14 11:38:36;;;;;;;11.45;10.55;;;;;;;30.13;44.45;101062.66;5985188;29;20242;-71
2022/08/14 11:41:59;;;;;;;7.13;6.50;;;;;;;30.38;43.73;101060.22;5988572;29;20331;-72
2022/08/14 11:45:20;;;;;;;10.57;9.57;;;;;;;30.32;44.25;101047.34;5983414;29;20246;-72
2022/08/14 11:48:48;;;;;;;14.20;13.05;;;;;;;30.47;43.68;101043.88;5983639;29;20235;-72
2022/08/14 11:52:11;;;;;;;13.07;11.88;;;;;;;30.45;44.33;101041.38;5991113;29;20239;-72
2022/08/14 11:55:35;;;;;;;13.07;11.95;;;;;;;30.21;44.03;101039.13;5993580;29;20503;-73
2022/08/14 11:58:56;;;;;;;12.88;11.80;;;;;;;30.50;43.96;101035.84;5986447;29;20314;-72
2022/08/14 12:02:17;;;;;;;7.90;7.20;;;;;;;30.47;43.63;101036.38;5988528;29;20334;-73
2022/08/14 12:05:41;;;;;;;6.32;5.45;;;;;;;30.06;44.13;101038.94;5982563;29;20239;-72
2022/08/14 12:09:03;;;;;;;5.50;5.18;;;;;;;30.05;44.64;101034.47;5992333;29;20246;-72
2022/08/14 12:12:26;;;;;;;6.00;5.60;;;;;;;30.14;45.05;101028.19;5987203;29;20247;-72
2022/08/14 12:15:58;;;;;;;21.25;19.55;;;;;;;30.44;44.39;101027.69;5985853;29;20262;-73
2022/08/14 12:19:19;;;;;;;16.23;14.90;;;;;;;30.81;44.21;101014.69;5990643;29;20329;-72
2022/08/14 12:22:43;;;;;;;7.45;6.72;;;;;;;31.18;43.40;101015.56;5982559;29;20796;-73
2022/08/14 12:26:06;;;;;;;25.20;22.75;;;;;;;34.24;37.57;100993.72;5991692;29;20507;-72
2022/08/14 12:29:28;;;;;;;10.60;9.80;;;;;;;34.78;35.88;100993.59;5983610;29;20235;-73
2022/08/14 12:32:49;;;;;;;8.98;8.32;;;;;;;33.31;38.64;100996.31;5986764;29;20239;-73
2022/08/14 12:36:20;;;;;;;8.32;7.47;;;;;;;33.30;38.75;100986.25;5976751;29;20243;-71
2022/08/14 12:39:43;;;;;;;6.30;5.68;;;;;;;33.49;38.86;100978.06;5977032;29;20239;-73
2022/08/14 12:43:04;;;;;;;6.38;5.72;;;;;;;34.04;37.58;100965.84;5992593;29;20243;-71
2022/08/14 12:46:27;;;;;;;6.78;6.18;;;;;;;33.48;38.28;100960.44;5989227;29;20243;-72
2022/08/14 12:49:51;;;;;;;8.82;8.00;;;;;;;33.47;38.60;100957.94;5995705;29;20492;-72
2022/08/14 12:53:12;;;;;;;14.43;13.38;;;;;;;35.74;34.38;100954.19;5995185;29;20232;-72
2022/08/14 12:56:35;;;;;;;13.90;12.77;;;;;;;36.25;33.34;100943.94;5995214;29;20614;-72
2022/08/14 13:00:06;;;;;;;6.20;5.60;;;;;;;36.98;31.30;100948.91;5994342;29;20527;-71
2022/08/14 13:03:29;;;;;;;9.85;8.95;;;;;;;39.56;28.07;100932.03;5987769;29;20420;-72
2022/08/14 13:06:51;;;;;;;15.45;14.18;;;;;;;42.31;24.67;100920.84;5984062;29;20239;-72
2022/08/14 13:10:13;;;;;;;7.28;6.75;;;;;;;41.73;23.75;100930.25;5984476;29;20235;-72
2022/08/14 13:13:37;;;;;;;8.52;7.93;;;;;;;39.81;26.01;100916.28;5986961;29;20251;-71
2022/08/14 13:17:00;;;;;;;7.47;6.88;;;;;;;39.44;25.00;100906.38;5983640;29;22154;-73
2022/08/14 13:20:24;;;;;;;6.03;5.63;;;;;;;38.20;26.90;100892.50;5987863;29;20240;-72
2022/08/14 13:23:46;;;;;;;7.38;6.38;;;;;;;38.52;25.64;100899.91;5988500;29;20227;-71
2022/08/14 13:27:09;;;;;;;5.78;5.40;;;;;;;39.14;25.40;100882.72;5991098;29;20231;-71
2022/08/14 13:30:32;;;;;;;6.05;5.65;;;;;;;39.84;24.27;100878.91;5993226;29;20552;-72
2022/08/14 13:33:54;;;;;;;7.47;6.78;;;;;;;36.83;27.15;100880.53;5992350;29;20266;-72
2022/08/14 13:37:16;;;;;;;5.63;5.25;;;;;;;37.34;26.29;100862.69;5994751;29;20240;-72
2022/08/14 14:55:40;;;;;;;7.18;5.70;;;;;;;34.26;36.18;100761.84;5965882;29;20243;-72
2022/08/14 14:59:02;;;;;;;9.70;8.48;;;;;;;35.04;35.79;100763.25;5995543;29;20247;-72
2022/08/14 15:02:33;;;;;;;8.07;6.07;;;;;;;34.21;36.88;100759.97;5990825;29;20645;-72
2022/08/14 15:05:56;;;;;;;6.50;5.93;;;;;;;33.38;37.91;100763.94;5991418;29;20243;-72
2022/08/14 15:09:17;;;;;;;6.75;6.13;;;;;;;33.13;38.29;100767.69;5996852;29;20258;-72
2022/08/14 15:12:39;;;;;;;7.43;6.15;;;;;;;33.01;38.78;100765.25;5993955;29;20246;-71
2022/08/14 15:16:01;;;;;;;8.20;5.68;;;;;;;32.90;39.41;100758.00;5995373;29;20235;-72
2022/08/14 15:19:22;;;;;;;7.10;6.45;;;;;;;33.30;38.69;100756.16;5996840;29;20286;-72
2022/08/14 15:22:43;;;;;;;10.05;6.10;;;;;;;33.23;38.60;100759.28;5991696;29;20239;-71
2022/08/14 15:26:04;;;;;;;8.18;5.72;;;;;;;33.45;38.30;100759.69;5993133;29;20243;-72
2022/08/14 15:29:29;;;;;;;7.17;5.00;;;;;;;33.61;38.57;100755.69;5984369;29;20788;-70
2022/08/14 15:32:51;;;;;;;5.78;5.18;;;;;;;33.95;37.86;100752.03;5991115;29;20887;-71
2022/08/14 15:36:12;;;;;;;5.13;4.72;;;;;;;33.27;39.31;100751.16;5989642;29;20235;-71
2022/08/14 15:39:34;;;;;;;5.68;4.78;;;;;;;33.24;39.46;100743.31;5986659;29;20336;-71
2022/08/14 15:42:55;;;;;;;8.55;6.97;;;;;;;33.29;40.01;100734.91;5994665;29;20239;-71
2022/08/14 15:46:18;;;;;;;15.98;14.32;;;;;;;32.97;40.27;100729.75;6004630;29;20236;-72
2022/08/14 15:49:39;;;;;;;14.30;11.07;;;;;;;32.67;40.80;100747.47;5991636;29;20266;-71
2022/08/14 15:53:00;;;;;;;8.38;7.55;;;;;;;32.44;41.85;100750.06;5986778;29;20633;-71
2022/08/14 15:56:21;;;;;;;9.73;8.45;;;;;;;32.51;41.25;100728.28;5989404;29;20274;-71
2022/08/14 16:03:23;;;;;;;8.20;7.43;;;;;;;32.51;38.83;100723.53;5978480;29;20243;-73
2022/08/14 16:06:44;;;;;;;12.93;11.65;;;;;;;32.57;38.80;100725.19;5989672;29;20238;-73
2022/08/14 16:10:05;;;;;;;11.18;10.07;;;;;;;32.86;38.21;100742.09;5994400;29;20757;-73
2022/08/14 16:13:28;;;;;;;16.27;14.70;;;;;;;32.88;38.75;100740.69;5998428;29;20258;-72
2022/08/14 16:16:49;;;;;;;11.98;10.95;;;;;;;32.53;39.64;100729.66;5998255;29;20487;-73
2022/08/14 16:20:12;;;;;;;10.48;9.45;;;;;;;32.27;39.72;100728.88;5997364;29;20279;-72
2022/08/14 16:23:35;;;;;;;19.80;9.93;;;;;;;32.06;39.68;100732.00;5997667;29;20705;-71
2022/08/14 16:26:57;;;;;;;13.70;10.77;;;;;;;31.85;40.65;100724.72;5994317;29;20333;-71
2022/08/14 16:30:18;;;;;;;9.10;8.30;;;;;;;31.67;41.09;100726.13;5993630;29;20238;-71
2022/08/14 16:33:39;;;;;;;6.70;5.82;;;;;;;31.62;41.06;100719.72;5999711;29;20239;-71
2022/08/14 16:37:02;;;;;;;5.63;5.15;;;;;;;31.62;41.08;100711.34;5992081;29;20243;-71
2022/08/14 16:40:23;;;;;;;6.15;5.55;;;;;;;31.57;41.70;100711.34;5994571;29;20251;-72
2022/08/14 16:43:45;;;;;;;5.05;4.40;;;;;;;31.50;41.31;100709.66;5996820;29;20235;-72
2022/08/14 16:47:11;;;;;;;7.43;6.72;;;;;;;31.35;41.58;100709.63;5994396;29;20239;-69
2022/08/14 16:50:32;;;;;;;5.70;5.20;;;;;;;31.15;41.91;100703.16;5995944;29;20239;-71
2022/08/14 16:53:55;;;;;;;7.32;6.32;;;;;;;31.01;41.40;100691.72;5998016;29;21310;-71
2022/08/14 16:57:20;;;;;;;10.50;6.93;;;;;;;30.93;40.93;100683.91;5990907;29;20302;-71
2022/08/14 17:00:41;;;;;;;5.32;4.80;;;;;;;30.85;40.94;100695.59;5996948;29;20238;-72
2022/08/14 17:04:07;;;;;;;5.30;4.32;;;;;;;30.72;41.25;100684.94;6003987;29;20261;-72
2022/08/14 17:07:28;;;;;;;3.80;3.50;;;;;;;30.65;41.01;100676.00;5996355;29;20243;-71
2022/08/14 17:11:02;;;;;;;6.65;4.30;;;;;;;30.64;41.56;100677.13;5991824;29;20243;-71
2022/08/14 17:14:25;;;;;;;7.95;4.32;;;;;;;30.47;41.07;100676.47;5984943;29;20235;-70